<?xml version="1.0" encoding="UTF-8" standalone="no" ?>
<gpx xmlns="http://www.topografix.com/GPX/1/1" xmlns:xsi="http://www.w3.org/2001/XMLSchema-instance" xsi:schemaLocation="http://www.topografix.com/GPX/1/1 http://www.topografix.com/GPX/1/1/gpx.xsd" version="1.1" creator="VisuGPX - https://www.visugpx.com">
  <metadata>
    <name>Vacances 2021</name>
  </metadata>
  <trk>
    <name><![CDATA[Journal actif: 2021-07-30 09:59]]></name>
    <trkseg>
      <trkpt lat="49.34318" lon="-0.75265">
        <ele>11.67</ele>
        <time>2021-07-30T11:59:45Z</time>
      </trkpt>
      <trkpt lat="49.34332" lon="-0.75263">
        <ele>11.67</ele>
        <time>2021-07-30T12:00:01Z</time>
      </trkpt>
      <trkpt lat="49.34344" lon="-0.75252">
        <ele>12.15</ele>
        <time>2021-07-30T12:00:07Z</time>
      </trkpt>
      <trkpt lat="49.34345" lon="-0.75257">
        <ele>11.67</ele>
        <time>2021-07-30T12:00:08Z</time>
      </trkpt>
      <trkpt lat="49.34346" lon="-0.75261">
        <ele>11.67</ele>
        <time>2021-07-30T12:00:09Z</time>
      </trkpt>
      <trkpt lat="49.34346" lon="-0.75261">
        <ele>12.15</ele>
        <time>2021-07-30T12:00:10Z</time>
      </trkpt>
      <trkpt lat="49.34346" lon="-0.75261">
        <ele>12.15</ele>
        <time>2021-07-30T12:00:11Z</time>
      </trkpt>
      <trkpt lat="49.34344" lon="-0.75265">
        <ele>12.15</ele>
        <time>2021-07-30T12:00:12Z</time>
      </trkpt>
      <trkpt lat="49.34342" lon="-0.75268">
        <ele>12.15</ele>
        <time>2021-07-30T12:00:13Z</time>
      </trkpt>
      <trkpt lat="49.34342" lon="-0.75269">
        <ele>12.15</ele>
        <time>2021-07-30T12:00:14Z</time>
      </trkpt>
      <trkpt lat="49.34341" lon="-0.75269">
        <ele>12.15</ele>
        <time>2021-07-30T12:00:15Z</time>
      </trkpt>
      <trkpt lat="49.3434" lon="-0.75267">
        <ele>12.15</ele>
        <time>2021-07-30T12:00:16Z</time>
      </trkpt>
      <trkpt lat="49.34338" lon="-0.75266">
        <ele>12.15</ele>
        <time>2021-07-30T12:00:17Z</time>
      </trkpt>
      <trkpt lat="49.34337" lon="-0.75264">
        <ele>11.67</ele>
        <time>2021-07-30T12:00:18Z</time>
      </trkpt>
      <trkpt lat="49.34324" lon="-0.75264">
        <ele>11.19</ele>
        <time>2021-07-30T12:00:28Z</time>
      </trkpt>
      <trkpt lat="49.34247" lon="-0.75279">
        <ele>10.23</ele>
        <time>2021-07-30T12:00:38Z</time>
      </trkpt>
      <trkpt lat="49.34126" lon="-0.75321">
        <ele>6.87</ele>
        <time>2021-07-30T12:00:51Z</time>
      </trkpt>
      <trkpt lat="49.33999" lon="-0.75433">
        <ele>4.94</ele>
        <time>2021-07-30T12:01:03Z</time>
      </trkpt>
      <trkpt lat="49.33912" lon="-0.75564">
        <ele>8.31</ele>
        <time>2021-07-30T12:01:15Z</time>
      </trkpt>
      <trkpt lat="49.33894" lon="-0.75593">
        <ele>8.79</ele>
        <time>2021-07-30T12:01:19Z</time>
      </trkpt>
      <trkpt lat="49.33887" lon="-0.75605">
        <ele>8.79</ele>
        <time>2021-07-30T12:01:20Z</time>
      </trkpt>
      <trkpt lat="49.33887" lon="-0.75605">
        <ele>8.79</ele>
        <time>2021-07-30T12:01:21Z</time>
      </trkpt>
      <trkpt lat="49.33887" lon="-0.75624">
        <ele>8.79</ele>
        <time>2021-07-30T12:01:23Z</time>
      </trkpt>
      <trkpt lat="49.33886" lon="-0.75632">
        <ele>8.31</ele>
        <time>2021-07-30T12:01:24Z</time>
      </trkpt>
      <trkpt lat="49.33884" lon="-0.75638">
        <ele>8.79</ele>
        <time>2021-07-30T12:01:25Z</time>
      </trkpt>
      <trkpt lat="49.33881" lon="-0.75643">
        <ele>8.79</ele>
        <time>2021-07-30T12:01:26Z</time>
      </trkpt>
      <trkpt lat="49.33878" lon="-0.75649">
        <ele>8.31</ele>
        <time>2021-07-30T12:01:27Z</time>
      </trkpt>
      <trkpt lat="49.33872" lon="-0.75653">
        <ele>8.31</ele>
        <time>2021-07-30T12:01:28Z</time>
      </trkpt>
      <trkpt lat="49.33866" lon="-0.75652">
        <ele>8.31</ele>
        <time>2021-07-30T12:01:29Z</time>
      </trkpt>
      <trkpt lat="49.3386" lon="-0.75651">
        <ele>7.83</ele>
        <time>2021-07-30T12:01:30Z</time>
      </trkpt>
      <trkpt lat="49.33855" lon="-0.75644">
        <ele>7.83</ele>
        <time>2021-07-30T12:01:31Z</time>
      </trkpt>
      <trkpt lat="49.33846" lon="-0.75635">
        <ele>7.83</ele>
        <time>2021-07-30T12:01:32Z</time>
      </trkpt>
      <trkpt lat="49.33839" lon="-0.75636">
        <ele>7.83</ele>
        <time>2021-07-30T12:01:33Z</time>
      </trkpt>
      <trkpt lat="49.33832" lon="-0.75638">
        <ele>7.83</ele>
        <time>2021-07-30T12:01:34Z</time>
      </trkpt>
      <trkpt lat="49.33726" lon="-0.75657">
        <ele>5.42</ele>
        <time>2021-07-30T12:01:45Z</time>
      </trkpt>
      <trkpt lat="49.33528" lon="-0.75689">
        <ele>9.27</ele>
        <time>2021-07-30T12:02:01Z</time>
      </trkpt>
      <trkpt lat="49.33347" lon="-0.75719">
        <ele>11.19</ele>
        <time>2021-07-30T12:02:16Z</time>
      </trkpt>
      <trkpt lat="49.33202" lon="-0.75744">
        <ele>12.15</ele>
        <time>2021-07-30T12:02:30Z</time>
      </trkpt>
      <trkpt lat="49.33114" lon="-0.75759">
        <ele>4.46</ele>
        <time>2021-07-30T12:02:39Z</time>
      </trkpt>
      <trkpt lat="49.33074" lon="-0.75766">
        <ele>4.46</ele>
        <time>2021-07-30T12:02:47Z</time>
      </trkpt>
      <trkpt lat="49.33062" lon="-0.75767">
        <ele>5.91</ele>
        <time>2021-07-30T12:02:56Z</time>
      </trkpt>
      <trkpt lat="49.33062" lon="-0.75767">
        <ele>5.91</ele>
        <time>2021-07-30T12:03:00Z</time>
      </trkpt>
      <trkpt lat="49.33059" lon="-0.75768">
        <ele>5.91</ele>
        <time>2021-07-30T12:03:01Z</time>
      </trkpt>
      <trkpt lat="49.33058" lon="-0.75768">
        <ele>5.91</ele>
        <time>2021-07-30T12:03:02Z</time>
      </trkpt>
      <trkpt lat="49.33057" lon="-0.75762">
        <ele>6.39</ele>
        <time>2021-07-30T12:03:05Z</time>
      </trkpt>
      <trkpt lat="49.33058" lon="-0.75765">
        <ele>5.91</ele>
        <time>2021-07-30T12:03:08Z</time>
      </trkpt>
      <trkpt lat="49.3306" lon="-0.75768">
        <ele>5.42</ele>
        <time>2021-07-30T12:03:11Z</time>
      </trkpt>
      <trkpt lat="49.33063" lon="-0.75767">
        <ele>5.42</ele>
        <time>2021-07-30T12:03:12Z</time>
      </trkpt>
      <trkpt lat="49.33067" lon="-0.75767">
        <ele>5.42</ele>
        <time>2021-07-30T12:03:13Z</time>
      </trkpt>
      <trkpt lat="49.33072" lon="-0.75766">
        <ele>5.42</ele>
        <time>2021-07-30T12:03:14Z</time>
      </trkpt>
      <trkpt lat="49.33142" lon="-0.75754">
        <ele>5.42</ele>
        <time>2021-07-30T12:03:22Z</time>
      </trkpt>
      <trkpt lat="49.33332" lon="-0.75721">
        <ele>8.79</ele>
        <time>2021-07-30T12:03:38Z</time>
      </trkpt>
      <trkpt lat="49.33385" lon="-0.75713">
        <ele>13.12</ele>
        <time>2021-07-30T12:03:44Z</time>
      </trkpt>
      <trkpt lat="49.33396" lon="-0.75711">
        <ele>16.48</ele>
        <time>2021-07-30T12:03:53Z</time>
      </trkpt>
      <trkpt lat="49.33396" lon="-0.75711">
        <ele>18.88</ele>
        <time>2021-07-30T12:04:07Z</time>
      </trkpt>
      <trkpt lat="49.33393" lon="-0.75675">
        <ele>18.88</ele>
        <time>2021-07-30T12:04:10Z</time>
      </trkpt>
      <trkpt lat="49.33389" lon="-0.7567">
        <ele>18.88</ele>
        <time>2021-07-30T12:04:12Z</time>
      </trkpt>
      <trkpt lat="49.33394" lon="-0.7565">
        <ele>19.36</ele>
        <time>2021-07-30T12:04:20Z</time>
      </trkpt>
      <trkpt lat="49.33394" lon="-0.7565">
        <ele>18.88</ele>
        <time>2021-07-30T12:05:45Z</time>
      </trkpt>
      <trkpt lat="49.33395" lon="-0.75649">
        <ele>18.88</ele>
        <time>2021-07-30T12:07:52Z</time>
      </trkpt>
      <trkpt lat="49.33395" lon="-0.7565">
        <ele>18.88</ele>
        <time>2021-07-30T12:09:50Z</time>
      </trkpt>
      <trkpt lat="49.33395" lon="-0.7565">
        <ele>18.88</ele>
        <time>2021-07-30T12:11:57Z</time>
      </trkpt>
      <trkpt lat="49.33395" lon="-0.7565">
        <ele>18.88</ele>
        <time>2021-07-30T12:15:28Z</time>
      </trkpt>
      <trkpt lat="49.33396" lon="-0.75649">
        <ele>19.36</ele>
        <time>2021-07-30T12:20:11Z</time>
      </trkpt>
      <trkpt lat="49.33396" lon="-0.75649">
        <ele>19.36</ele>
        <time>2021-07-30T12:22:14Z</time>
      </trkpt>
      <trkpt lat="49.33395" lon="-0.75648">
        <ele>19.84</ele>
        <time>2021-07-30T12:25:39Z</time>
      </trkpt>
      <trkpt lat="49.33395" lon="-0.75649">
        <ele>19.84</ele>
        <time>2021-07-30T12:28:58Z</time>
      </trkpt>
      <trkpt lat="49.33395" lon="-0.75649">
        <ele>19.84</ele>
        <time>2021-07-30T12:31:10Z</time>
      </trkpt>
      <trkpt lat="49.33395" lon="-0.75649">
        <ele>19.84</ele>
        <time>2021-07-30T12:34:39Z</time>
      </trkpt>
      <trkpt lat="49.33395" lon="-0.75649">
        <ele>19.84</ele>
        <time>2021-07-30T12:38:14Z</time>
      </trkpt>
      <trkpt lat="49.33396" lon="-0.75649">
        <ele>19.84</ele>
        <time>2021-07-30T12:41:20Z</time>
      </trkpt>
      <trkpt lat="49.33396" lon="-0.75649">
        <ele>19.84</ele>
        <time>2021-07-30T12:43:39Z</time>
      </trkpt>
      <trkpt lat="49.33396" lon="-0.75649">
        <ele>19.84</ele>
        <time>2021-07-30T12:46:23Z</time>
      </trkpt>
      <trkpt lat="49.33396" lon="-0.75649">
        <ele>19.84</ele>
        <time>2021-07-30T12:49:58Z</time>
      </trkpt>
      <trkpt lat="49.33395" lon="-0.75648">
        <ele>20.32</ele>
        <time>2021-07-30T12:53:59Z</time>
      </trkpt>
      <trkpt lat="49.33395" lon="-0.75648">
        <ele>20.32</ele>
        <time>2021-07-30T12:56:48Z</time>
      </trkpt>
      <trkpt lat="49.33394" lon="-0.7565">
        <ele>20.32</ele>
        <time>2021-07-30T13:01:42Z</time>
      </trkpt>
      <trkpt lat="49.33394" lon="-0.7565">
        <ele>20.32</ele>
        <time>2021-07-30T13:05:40Z</time>
      </trkpt>
      <trkpt lat="49.33394" lon="-0.75649">
        <ele>20.32</ele>
        <time>2021-07-30T13:07:36Z</time>
      </trkpt>
      <trkpt lat="49.33395" lon="-0.75645">
        <ele>20.32</ele>
        <time>2021-07-30T13:07:43Z</time>
      </trkpt>
      <trkpt lat="49.33382" lon="-0.75636">
        <ele>19.84</ele>
        <time>2021-07-30T13:07:55Z</time>
      </trkpt>
      <trkpt lat="49.33384" lon="-0.75655">
        <ele>19.36</ele>
        <time>2021-07-30T13:08:00Z</time>
      </trkpt>
      <trkpt lat="49.33397" lon="-0.75698">
        <ele>18.88</ele>
        <time>2021-07-30T13:08:15Z</time>
      </trkpt>
      <trkpt lat="49.33397" lon="-0.75698">
        <ele>18.88</ele>
        <time>2021-07-30T13:08:25Z</time>
      </trkpt>
      <trkpt lat="49.33396" lon="-0.75711">
        <ele>18.88</ele>
        <time>2021-07-30T13:08:28Z</time>
      </trkpt>
      <trkpt lat="49.33394" lon="-0.75711">
        <ele>18.4</ele>
        <time>2021-07-30T13:08:29Z</time>
      </trkpt>
      <trkpt lat="49.33391" lon="-0.75712">
        <ele>18.4</ele>
        <time>2021-07-30T13:08:30Z</time>
      </trkpt>
      <trkpt lat="49.33387" lon="-0.75712">
        <ele>17.92</ele>
        <time>2021-07-30T13:08:31Z</time>
      </trkpt>
      <trkpt lat="49.33313" lon="-0.75725">
        <ele>14.08</ele>
        <time>2021-07-30T13:08:41Z</time>
      </trkpt>
      <trkpt lat="49.33174" lon="-0.75748">
        <ele>13.12</ele>
        <time>2021-07-30T13:08:54Z</time>
      </trkpt>
      <trkpt lat="49.32944" lon="-0.75784">
        <ele>6.87</ele>
        <time>2021-07-30T13:09:11Z</time>
      </trkpt>
      <trkpt lat="49.328" lon="-0.75778">
        <ele>16.48</ele>
        <time>2021-07-30T13:09:23Z</time>
      </trkpt>
      <trkpt lat="49.32701" lon="-0.75676">
        <ele>22.25</ele>
        <time>2021-07-30T13:09:32Z</time>
      </trkpt>
      <trkpt lat="49.32554" lon="-0.75487">
        <ele>23.21</ele>
        <time>2021-07-30T13:09:45Z</time>
      </trkpt>
      <trkpt lat="49.32309" lon="-0.75169">
        <ele>20.32</ele>
        <time>2021-07-30T13:10:06Z</time>
      </trkpt>
      <trkpt lat="49.32012" lon="-0.74785">
        <ele>19.36</ele>
        <time>2021-07-30T13:10:30Z</time>
      </trkpt>
      <trkpt lat="49.31897" lon="-0.74635">
        <ele>19.84</ele>
        <time>2021-07-30T13:10:41Z</time>
      </trkpt>
      <trkpt lat="49.31757" lon="-0.74456">
        <ele>21.29</ele>
        <time>2021-07-30T13:10:57Z</time>
      </trkpt>
      <trkpt lat="49.31634" lon="-0.74297">
        <ele>28.02</ele>
        <time>2021-07-30T13:11:11Z</time>
      </trkpt>
      <trkpt lat="49.31522" lon="-0.74194">
        <ele>29.46</ele>
        <time>2021-07-30T13:11:21Z</time>
      </trkpt>
      <trkpt lat="49.31333" lon="-0.7412">
        <ele>29.94</ele>
        <time>2021-07-30T13:11:34Z</time>
      </trkpt>
      <trkpt lat="49.31019" lon="-0.74001">
        <ele>31.86</ele>
        <time>2021-07-30T13:11:54Z</time>
      </trkpt>
      <trkpt lat="49.3071" lon="-0.73886">
        <ele>37.63</ele>
        <time>2021-07-30T13:12:13Z</time>
      </trkpt>
      <trkpt lat="49.30523" lon="-0.73784">
        <ele>35.71</ele>
        <time>2021-07-30T13:12:26Z</time>
      </trkpt>
      <trkpt lat="49.30353" lon="-0.73616">
        <ele>32.34</ele>
        <time>2021-07-30T13:12:37Z</time>
      </trkpt>
      <trkpt lat="49.30127" lon="-0.73385">
        <ele>35.23</ele>
        <time>2021-07-30T13:12:52Z</time>
      </trkpt>
      <trkpt lat="49.29836" lon="-0.73071">
        <ele>42.92</ele>
        <time>2021-07-30T13:13:13Z</time>
      </trkpt>
      <trkpt lat="49.29569" lon="-0.72758">
        <ele>45.8</ele>
        <time>2021-07-30T13:13:32Z</time>
      </trkpt>
      <trkpt lat="49.2928" lon="-0.7242">
        <ele>55.89</ele>
        <time>2021-07-30T13:13:52Z</time>
      </trkpt>
      <trkpt lat="49.29064" lon="-0.72169">
        <ele>55.41</ele>
        <time>2021-07-30T13:14:07Z</time>
      </trkpt>
      <trkpt lat="49.28989" lon="-0.72081">
        <ele>58.3</ele>
        <time>2021-07-30T13:14:14Z</time>
      </trkpt>
      <trkpt lat="49.28967" lon="-0.72055">
        <ele>58.78</ele>
        <time>2021-07-30T13:14:21Z</time>
      </trkpt>
      <trkpt lat="49.28949" lon="-0.72033">
        <ele>58.78</ele>
        <time>2021-07-30T13:15:01Z</time>
      </trkpt>
      <trkpt lat="49.28875" lon="-0.71947">
        <ele>57.82</ele>
        <time>2021-07-30T13:15:10Z</time>
      </trkpt>
      <trkpt lat="49.28711" lon="-0.7176">
        <ele>55.89</ele>
        <time>2021-07-30T13:15:26Z</time>
      </trkpt>
      <trkpt lat="49.28668" lon="-0.71708">
        <ele>56.86</ele>
        <time>2021-07-30T13:15:34Z</time>
      </trkpt>
      <trkpt lat="49.28594" lon="-0.71622">
        <ele>56.86</ele>
        <time>2021-07-30T13:15:46Z</time>
      </trkpt>
      <trkpt lat="49.28462" lon="-0.71467">
        <ele>55.89</ele>
        <time>2021-07-30T13:16:03Z</time>
      </trkpt>
      <trkpt lat="49.2833" lon="-0.71316">
        <ele>54.45</ele>
        <time>2021-07-30T13:16:19Z</time>
      </trkpt>
      <trkpt lat="49.28324" lon="-0.71309">
        <ele>54.45</ele>
        <time>2021-07-30T13:16:25Z</time>
      </trkpt>
      <trkpt lat="49.28311" lon="-0.71294">
        <ele>54.45</ele>
        <time>2021-07-30T13:17:32Z</time>
      </trkpt>
      <trkpt lat="49.28311" lon="-0.71282">
        <ele>54.45</ele>
        <time>2021-07-30T13:17:42Z</time>
      </trkpt>
      <trkpt lat="49.28311" lon="-0.71282">
        <ele>54.45</ele>
        <time>2021-07-30T13:17:43Z</time>
      </trkpt>
      <trkpt lat="49.28312" lon="-0.71277">
        <ele>54.45</ele>
        <time>2021-07-30T13:17:44Z</time>
      </trkpt>
      <trkpt lat="49.28337" lon="-0.71184">
        <ele>53.01</ele>
        <time>2021-07-30T13:17:55Z</time>
      </trkpt>
      <trkpt lat="49.28377" lon="-0.71011">
        <ele>50.61</ele>
        <time>2021-07-30T13:18:11Z</time>
      </trkpt>
      <trkpt lat="49.28382" lon="-0.70968">
        <ele>49.65</ele>
        <time>2021-07-30T13:18:18Z</time>
      </trkpt>
      <trkpt lat="49.28386" lon="-0.70935">
        <ele>49.65</ele>
        <time>2021-07-30T13:18:42Z</time>
      </trkpt>
      <trkpt lat="49.28382" lon="-0.70807">
        <ele>50.13</ele>
        <time>2021-07-30T13:18:53Z</time>
      </trkpt>
      <trkpt lat="49.28363" lon="-0.70584">
        <ele>50.61</ele>
        <time>2021-07-30T13:19:09Z</time>
      </trkpt>
      <trkpt lat="49.28374" lon="-0.70436">
        <ele>48.2</ele>
        <time>2021-07-30T13:19:20Z</time>
      </trkpt>
      <trkpt lat="49.28376" lon="-0.70423">
        <ele>47.72</ele>
        <time>2021-07-30T13:19:22Z</time>
      </trkpt>
      <trkpt lat="49.28376" lon="-0.70418">
        <ele>47.24</ele>
        <time>2021-07-30T13:19:23Z</time>
      </trkpt>
      <trkpt lat="49.28373" lon="-0.70407">
        <ele>47.24</ele>
        <time>2021-07-30T13:19:24Z</time>
      </trkpt>
      <trkpt lat="49.2837" lon="-0.70403">
        <ele>46.76</ele>
        <time>2021-07-30T13:19:25Z</time>
      </trkpt>
      <trkpt lat="49.28369" lon="-0.70396">
        <ele>46.76</ele>
        <time>2021-07-30T13:19:26Z</time>
      </trkpt>
      <trkpt lat="49.2837" lon="-0.70389">
        <ele>46.76</ele>
        <time>2021-07-30T13:19:27Z</time>
      </trkpt>
      <trkpt lat="49.28372" lon="-0.70382">
        <ele>46.76</ele>
        <time>2021-07-30T13:19:28Z</time>
      </trkpt>
      <trkpt lat="49.28376" lon="-0.7038">
        <ele>46.28</ele>
        <time>2021-07-30T13:19:29Z</time>
      </trkpt>
      <trkpt lat="49.2838" lon="-0.70379">
        <ele>46.28</ele>
        <time>2021-07-30T13:19:30Z</time>
      </trkpt>
      <trkpt lat="49.28384" lon="-0.70381">
        <ele>45.8</ele>
        <time>2021-07-30T13:19:31Z</time>
      </trkpt>
      <trkpt lat="49.28385" lon="-0.70381">
        <ele>45.8</ele>
        <time>2021-07-30T13:19:32Z</time>
      </trkpt>
      <trkpt lat="49.28385" lon="-0.70381">
        <ele>45.32</ele>
        <time>2021-07-30T13:19:33Z</time>
      </trkpt>
      <trkpt lat="49.28396" lon="-0.70397">
        <ele>44.84</ele>
        <time>2021-07-30T13:19:34Z</time>
      </trkpt>
      <trkpt lat="49.284" lon="-0.70396">
        <ele>44.84</ele>
        <time>2021-07-30T13:19:35Z</time>
      </trkpt>
      <trkpt lat="49.28404" lon="-0.70395">
        <ele>44.36</ele>
        <time>2021-07-30T13:19:36Z</time>
      </trkpt>
      <trkpt lat="49.28409" lon="-0.70394">
        <ele>44.36</ele>
        <time>2021-07-30T13:19:37Z</time>
      </trkpt>
      <trkpt lat="49.28488" lon="-0.70387">
        <ele>40.99</ele>
        <time>2021-07-30T13:19:47Z</time>
      </trkpt>
      <trkpt lat="49.28566" lon="-0.70382">
        <ele>41.47</ele>
        <time>2021-07-30T13:19:58Z</time>
      </trkpt>
      <trkpt lat="49.28571" lon="-0.70381">
        <ele>41.47</ele>
        <time>2021-07-30T13:19:59Z</time>
      </trkpt>
      <trkpt lat="49.28575" lon="-0.70381">
        <ele>41.95</ele>
        <time>2021-07-30T13:20:00Z</time>
      </trkpt>
      <trkpt lat="49.28581" lon="-0.70389">
        <ele>41.95</ele>
        <time>2021-07-30T13:20:01Z</time>
      </trkpt>
      <trkpt lat="49.28581" lon="-0.70389">
        <ele>41.95</ele>
        <time>2021-07-30T13:20:02Z</time>
      </trkpt>
      <trkpt lat="49.28581" lon="-0.70393">
        <ele>41.95</ele>
        <time>2021-07-30T13:20:03Z</time>
      </trkpt>
      <trkpt lat="49.28581" lon="-0.70397">
        <ele>42.44</ele>
        <time>2021-07-30T13:20:04Z</time>
      </trkpt>
      <trkpt lat="49.28581" lon="-0.70401">
        <ele>42.44</ele>
        <time>2021-07-30T13:20:05Z</time>
      </trkpt>
      <trkpt lat="49.28581" lon="-0.70406">
        <ele>42.44</ele>
        <time>2021-07-30T13:20:06Z</time>
      </trkpt>
      <trkpt lat="49.28561" lon="-0.70441">
        <ele>44.36</ele>
        <time>2021-07-30T13:20:17Z</time>
      </trkpt>
      <trkpt lat="49.28536" lon="-0.70462">
        <ele>44.84</ele>
        <time>2021-07-30T13:20:29Z</time>
      </trkpt>
      <trkpt lat="49.28513" lon="-0.70488">
        <ele>47.72</ele>
        <time>2021-07-30T13:20:42Z</time>
      </trkpt>
      <trkpt lat="49.28508" lon="-0.70493">
        <ele>47.24</ele>
        <time>2021-07-30T13:20:45Z</time>
      </trkpt>
      <trkpt lat="49.28507" lon="-0.70496">
        <ele>47.24</ele>
        <time>2021-07-30T13:20:46Z</time>
      </trkpt>
      <trkpt lat="49.28505" lon="-0.70498">
        <ele>46.76</ele>
        <time>2021-07-30T13:20:47Z</time>
      </trkpt>
      <trkpt lat="49.28503" lon="-0.705">
        <ele>46.76</ele>
        <time>2021-07-30T13:20:48Z</time>
      </trkpt>
      <trkpt lat="49.28502" lon="-0.70502">
        <ele>46.76</ele>
        <time>2021-07-30T13:20:49Z</time>
      </trkpt>
      <trkpt lat="49.28498" lon="-0.70506">
        <ele>46.28</ele>
        <time>2021-07-30T13:21:05Z</time>
      </trkpt>
      <trkpt lat="49.2849" lon="-0.70525">
        <ele>46.28</ele>
        <time>2021-07-30T13:21:20Z</time>
      </trkpt>
      <trkpt lat="49.2849" lon="-0.70525">
        <ele>46.28</ele>
        <time>2021-07-30T13:21:21Z</time>
      </trkpt>
      <trkpt lat="49.28494" lon="-0.70511">
        <ele>46.28</ele>
        <time>2021-07-30T13:21:22Z</time>
      </trkpt>
      <trkpt lat="49.28494" lon="-0.70511">
        <ele>46.28</ele>
        <time>2021-07-30T13:21:23Z</time>
      </trkpt>
      <trkpt lat="49.28491" lon="-0.70515">
        <ele>46.28</ele>
        <time>2021-07-30T13:21:24Z</time>
      </trkpt>
      <trkpt lat="49.2849" lon="-0.70517">
        <ele>46.28</ele>
        <time>2021-07-30T13:21:25Z</time>
      </trkpt>
      <trkpt lat="49.2849" lon="-0.70517">
        <ele>46.28</ele>
        <time>2021-07-30T13:21:26Z</time>
      </trkpt>
      <trkpt lat="49.28488" lon="-0.70519">
        <ele>46.28</ele>
        <time>2021-07-30T13:21:27Z</time>
      </trkpt>
      <trkpt lat="49.28488" lon="-0.70519">
        <ele>46.28</ele>
        <time>2021-07-30T13:21:29Z</time>
      </trkpt>
      <trkpt lat="49.28488" lon="-0.70519">
        <ele>46.76</ele>
        <time>2021-07-30T13:21:45Z</time>
      </trkpt>
      <trkpt lat="49.28497" lon="-0.70542">
        <ele>46.76</ele>
        <time>2021-07-30T13:22:05Z</time>
      </trkpt>
      <trkpt lat="49.28497" lon="-0.7056">
        <ele>45.8</ele>
        <time>2021-07-30T13:22:22Z</time>
      </trkpt>
      <trkpt lat="49.28498" lon="-0.70583">
        <ele>45.8</ele>
        <time>2021-07-30T13:22:36Z</time>
      </trkpt>
      <trkpt lat="49.28499" lon="-0.70591">
        <ele>45.8</ele>
        <time>2021-07-30T13:22:39Z</time>
      </trkpt>
      <trkpt lat="49.28499" lon="-0.70594">
        <ele>45.8</ele>
        <time>2021-07-30T13:22:40Z</time>
      </trkpt>
      <trkpt lat="49.28499" lon="-0.70594">
        <ele>45.8</ele>
        <time>2021-07-30T13:22:41Z</time>
      </trkpt>
      <trkpt lat="49.28497" lon="-0.70598">
        <ele>45.8</ele>
        <time>2021-07-30T13:22:42Z</time>
      </trkpt>
      <trkpt lat="49.28496" lon="-0.70598">
        <ele>46.28</ele>
        <time>2021-07-30T13:22:43Z</time>
      </trkpt>
      <trkpt lat="49.28481" lon="-0.706">
        <ele>46.28</ele>
        <time>2021-07-30T13:22:53Z</time>
      </trkpt>
      <trkpt lat="49.28481" lon="-0.706">
        <ele>46.76</ele>
        <time>2021-07-30T13:24:25Z</time>
      </trkpt>
    </trkseg>
  </trk>
</gpx>